Time;durP1;ratioP1;P1;durP2;ratioP2;P2;SDS_P1;SDS_P2;PMS_P1;PMS_P2;Temp;Humidity;BMP_temperature;BMP_pressure;BME280_temperature;BME280_humidity;BME280_pressure;Samples;Min_cycle;Max_cycle;Signal;HPM_P1;HPM_P2
2021/07/28 00:00:42;;;;;;;17.25;12.73;;;15.50;99.90;;;;;;4955850;28;20054;-76
2021/07/28 00:03:13;;;;;;;23.70;13.93;;;15.40;99.90;;;;;;4964740;28;20136;-76
2021/07/28 00:05:41;;;;;;;23.73;14.20;;;15.40;99.90;;;;;;4930674;28;20680;-76
2021/07/28 00:08:10;;;;;;;27.45;14.68;;;15.40;99.90;;;;;;4917582;29;20042;-75
2021/07/28 00:10:40;;;;;;;20.25;12.32;;;15.20;99.90;;;;;;4898487;29;20070;-74
2021/07/28 00:13:06;;;;;;;30.25;13.88;;;15.10;99.90;;;;;;4930182;29;20115;-75
2021/07/28 00:15:33;;;;;;;26.15;14.23;;;15.10;99.90;;;;;;4929288;28;20347;-75
2021/07/28 00:18:08;;;;;;;28.02;14.77;;;15.00;99.90;;;;;;4912591;29;20074;-75
2021/07/28 00:23:19;;;;;;;29.25;16.60;;;14.90;99.90;;;;;;4946026;28;20059;-76
2021/07/28 00:25:54;;;;;;;29.38;16.48;;;14.90;99.90;;;;;;4914376;29;20043;-75
2021/07/28 00:28:21;;;;;;;29.52;16.65;;;14.90;99.90;;;;;;4949863;28;20062;-75
2021/07/28 00:30:51;;;;;;;31.88;16.25;;;14.90;99.90;;;;;;4955163;28;20102;-75
2021/07/28 00:33:17;;;;;;;34.78;16.88;;;14.90;99.90;;;;;;4948943;28;20102;-76
2021/07/28 00:35:47;;;;;;;30.42;16.13;;;14.80;99.90;;;;;;4948072;28;20086;-76
2021/07/28 00:38:15;;;;;;;40.72;17.48;;;14.70;99.90;;;;;;4959412;28;20074;-76
2021/07/28 00:40:50;;;;;;;40.90;18.25;;;14.70;99.90;;;;;;4944642;28;20047;-75
2021/07/28 00:43:32;;;;;;;40.92;16.50;;;14.90;99.90;;;;;;4912677;29;20615;-75
2021/07/28 00:46:02;;;;;;;33.05;16.95;;;14.70;99.90;;;;;;4945828;29;20062;-75
2021/07/28 00:48:29;;;;;;;30.15;15.88;;;14.60;99.90;;;;;;4931624;28;20069;-75
2021/07/28 00:51:01;;;;;;;34.05;17.00;;;14.60;99.90;;;;;;4964327;28;20134;-75
2021/07/28 00:53:35;;;;;;;37.38;16.13;;;14.70;99.90;;;;;;4930649;28;20057;-76
2021/07/28 00:56:04;;;;;;;33.78;16.23;;;14.70;99.90;;;;;;4931214;28;20050;-76
2021/07/28 00:58:32;;;;;;;38.22;17.30;;;14.60;99.90;;;;;;4952776;28;20148;-76
2021/07/28 01:01:00;;;;;;;33.55;17.50;;;14.50;99.90;;;;;;4952413;28;20401;-77
2021/07/28 01:03:28;;;;;;;34.70;17.20;;;14.40;99.90;;;;;;4928980;29;20668;-76
2021/07/28 01:05:58;;;;;;;34.70;16.98;;;14.50;99.90;;;;;;4944870;28;20043;-75
2021/07/28 01:08:26;;;;;;;41.80;17.88;;;14.40;99.90;;;;;;4924042;28;20467;-75
2021/07/28 01:10:57;;;;;;;35.80;16.85;;;14.50;99.90;;;;;;4931417;28;20051;-75
2021/07/28 01:13:29;;;;;;;40.10;17.60;;;14.60;99.90;;;;;;4947569;28;20125;-75
2021/07/28 01:16:04;;;;;;;46.90;19.25;;;14.50;99.90;;;;;;4962853;28;20140;-75
2021/07/28 01:18:32;;;;;;;30.30;15.52;;;14.50;99.90;;;;;;4947090;28;20189;-75
2021/07/28 01:21:03;;;;;;;37.88;17.60;;;14.30;99.90;;;;;;4962911;28;20119;-75
2021/07/28 01:23:32;;;;;;;38.95;16.92;;;14.40;99.90;;;;;;4947556;28;20073;-75
2021/07/28 01:26:07;;;;;;;40.63;16.63;;;14.30;99.90;;;;;;4931802;28;20447;-75
2021/07/28 01:28:38;;;;;;;40.70;18.00;;;14.10;99.90;;;;;;4959977;28;20058;-76
2021/07/28 01:31:12;;;;;;;38.58;17.13;;;14.10;99.90;;;;;;4935811;29;20138;-74
2021/07/28 01:33:50;;;;;;;29.17;15.90;;;14.20;99.90;;;;;;4943962;28;20293;-74
2021/07/28 01:36:21;;;;;;;36.47;17.15;;;14.10;99.90;;;;;;4927431;28;20554;-75
2021/07/28 01:38:51;;;;;;;46.42;19.30;;;14.20;99.90;;;;;;4962911;28;20058;-75
2021/07/28 01:41:20;;;;;;;36.65;16.95;;;14.10;99.90;;;;;;4916124;29;20480;-75
2021/07/28 01:43:47;;;;;;;37.50;18.00;;;14.10;99.90;;;;;;4912627;28;20050;-75
2021/07/28 01:46:18;;;;;;;45.45;18.25;;;14.00;99.90;;;;;;4934863;28;20100;-76
2021/07/28 01:48:48;;;;;;;33.33;16.45;;;14.00;99.90;;;;;;4967592;28;20065;-75
2021/07/28 01:51:21;;;;;;;31.95;15.10;;;14.00;99.90;;;;;;4931708;29;20492;-75
2021/07/28 01:53:56;;;;;;;32.45;16.52;;;13.90;99.90;;;;;;4948170;29;20085;-75
2021/07/28 01:56:33;;;;;;;32.08;15.45;;;13.90;99.90;;;;;;4955074;28;20055;-75
2021/07/28 01:59:00;;;;;;;29.13;15.45;;;13.90;99.90;;;;;;4967436;28;20055;-75
2021/07/28 02:01:31;;;;;;;27.60;14.75;;;13.80;99.90;;;;;;4949859;28;20049;-75
2021/07/28 02:03:58;;;;;;;29.73;15.60;;;13.70;99.90;;;;;;4949822;28;20449;-76
2021/07/28 02:06:25;;;;;;;32.72;15.02;;;13.60;99.90;;;;;;4955767;28;20051;-76
2021/07/28 02:08:52;;;;;;;30.38;16.88;;;13.60;99.90;;;;;;4951046;28;20045;-75
2021/07/28 02:11:25;;;;;;;31.42;15.00;;;13.60;99.90;;;;;;4959398;28;20066;-75
2021/07/28 02:13:56;;;;;;;31.10;15.20;;;13.70;99.90;;;;;;4962601;28;20055;-76
2021/07/28 02:16:23;;;;;;;29.52;15.25;;;13.60;99.90;;;;;;4933336;28;20049;-75
2021/07/28 02:18:51;;;;;;;32.08;15.82;;;13.60;99.90;;;;;;4965951;28;20096;-75
2021/07/28 02:21:24;;;;;;;29.75;14.45;;;13.50;99.90;;;;;;4950015;28;20500;-76
2021/07/28 02:23:50;;;;;;;28.85;14.57;;;13.50;99.90;;;;;;4934945;28;20734;-76
2021/07/28 02:26:17;;;;;;;31.83;14.90;;;13.40;99.90;;;;;;4965403;28;20355;-75
2021/07/28 02:28:44;;;;;;;25.77;13.63;;;13.40;99.90;;;;;;4933810;28;20530;-75
2021/07/28 02:31:13;;;;;;;39.13;18.15;;;13.40;99.90;;;;;;4956194;28;20086;-75
2021/07/28 02:33:42;;;;;;;35.60;17.20;;;13.40;99.90;;;;;;4937755;28;20486;-76
2021/07/28 02:36:10;;;;;;;36.03;15.82;;;13.40;99.90;;;;;;4968422;28;20125;-75
2021/07/28 02:38:39;;;;;;;29.25;14.30;;;13.50;99.90;;;;;;4966132;28;20149;-75
2021/07/28 02:41:06;;;;;;;27.77;15.25;;;13.40;99.90;;;;;;4947342;28;20416;-75
2021/07/28 02:43:36;;;;;;;33.60;15.65;;;13.40;99.90;;;;;;4964505;28;20054;-75
2021/07/28 02:46:03;;;;;;;33.20;15.85;;;13.30;99.90;;;;;;4965266;28;20054;-75
2021/07/28 02:48:31;;;;;;;34.05;15.63;;;13.20;99.90;;;;;;4950399;28;20051;-76
2021/07/28 02:51:06;;;;;;;31.25;15.50;;;13.20;99.90;;;;;;4966106;28;20050;-75
2021/07/28 02:53:33;;;;;;;29.05;15.30;;;13.10;99.90;;;;;;4946598;29;20117;-75
2021/07/28 02:56:01;;;;;;;26.42;14.15;;;13.10;99.90;;;;;;4962940;28;20055;-75
2021/07/28 02:58:28;;;;;;;27.58;14.23;;;13.10;99.90;;;;;;4949655;28;20061;-75
2021/07/28 03:00:55;;;;;;;25.05;14.38;;;13.20;99.90;;;;;;4939289;28;20159;-76
2021/07/28 03:03:23;;;;;;;22.05;13.82;;;13.20;99.90;;;;;;4946727;28;20071;-76
2021/07/28 03:05:52;;;;;;;27.65;14.50;;;13.30;99.90;;;;;;4912152;28;20116;-76
2021/07/28 03:08:22;;;;;;;25.02;13.98;;;13.20;99.90;;;;;;4948866;28;20559;-76
2021/07/28 03:10:49;;;;;;;25.17;12.77;;;13.20;99.90;;;;;;4965392;28;20039;-75
2021/07/28 03:13:18;;;;;;;22.98;13.65;;;13.20;99.90;;;;;;4969528;28;20137;-75
2021/07/28 03:15:46;;;;;;;18.45;12.10;;;13.20;99.90;;;;;;4933156;28;20102;-76
2021/07/28 03:18:13;;;;;;;21.60;13.07;;;13.20;99.90;;;;;;4932625;28;20090;-76
2021/07/28 03:20:46;;;;;;;26.05;14.02;;;13.20;99.90;;;;;;4949073;28;20202;-75
2021/07/28 03:23:16;;;;;;;20.13;12.82;;;13.20;99.90;;;;;;4960527;28;20114;-76
2021/07/28 03:25:43;;;;;;;30.42;14.52;;;13.20;99.90;;;;;;4926986;28;20090;-76
2021/07/28 03:28:22;;;;;;;28.30;14.63;;;13.20;99.90;;;;;;4943631;28;20523;-75
2021/07/28 03:31:03;;;;;;;30.25;14.07;;;13.20;99.90;;;;;;4941928;28;20047;-75
2021/07/28 03:33:38;;;;;;;28.05;13.98;;;13.20;99.90;;;;;;4967724;28;20054;-75
2021/07/28 03:36:11;;;;;;;32.70;15.02;;;13.20;99.90;;;;;;4962087;28;20356;-75
2021/07/28 03:38:39;;;;;;;29.63;15.52;;;13.00;99.90;;;;;;4966008;28;20058;-75
2021/07/28 03:41:06;;;;;;;31.23;16.27;;;12.90;99.90;;;;;;4948141;28;20459;-76
2021/07/28 03:43:33;;;;;;;34.60;15.77;;;12.90;99.90;;;;;;4959960;28;20059;-75
2021/07/28 03:46:03;;;;;;;30.15;16.30;;;12.90;99.90;;;;;;4932143;28;20125;-76
2021/07/28 03:48:34;;;;;;;37.20;16.70;;;12.90;99.90;;;;;;4948799;28;20488;-74
2021/07/28 03:51:01;;;;;;;29.27;15.98;;;13.10;99.90;;;;;;4931219;28;20062;-75
2021/07/28 03:53:29;;;;;;;34.35;15.48;;;13.10;99.90;;;;;;4948388;28;20221;-75
2021/07/28 03:55:56;;;;;;;32.45;16.08;;;13.20;99.90;;;;;;4947545;28;20055;-75
2021/07/28 03:58:23;;;;;;;29.33;15.68;;;13.20;99.90;;;;;;4947330;28;20083;-76
2021/07/28 04:00:53;;;;;;;25.35;13.93;;;13.10;99.90;;;;;;4936852;28;20521;-75
2021/07/28 04:03:23;;;;;;;27.30;14.73;;;13.20;99.90;;;;;;4929046;29;20065;-75
2021/07/28 04:05:54;;;;;;;27.30;14.82;;;13.30;99.90;;;;;;4929028;28;20039;-76
2021/07/28 04:08:24;;;;;;;32.45;14.85;;;13.40;99.90;;;;;;4959409;28;20059;-75
2021/07/28 04:10:53;;;;;;;22.45;12.85;;;13.50;99.90;;;;;;4943532;28;20130;-75
2021/07/28 04:13:21;;;;;;;24.13;13.70;;;13.50;99.90;;;;;;4948109;28;20537;-75
2021/07/28 04:15:50;;;;;;;24.08;12.90;;;13.50;99.90;;;;;;4951193;28;20138;-75
2021/07/28 04:18:20;;;;;;;21.23;13.20;;;13.50;99.90;;;;;;4913078;29;20504;-76
2021/07/28 04:20:47;;;;;;;27.55;14.25;;;13.70;99.90;;;;;;4945159;28;20384;-75
2021/07/28 04:23:17;;;;;;;20.27;12.73;;;13.80;99.90;;;;;;4961454;28;20065;-75
2021/07/28 04:25:44;;;;;;;23.52;12.68;;;13.80;99.90;;;;;;4959448;28;20058;-75
2021/07/28 04:28:14;;;;;;;19.15;11.40;;;13.90;99.90;;;;;;4948382;28;20062;-75
2021/07/28 04:30:43;;;;;;;22.38;13.18;;;14.00;99.90;;;;;;4936382;28;20043;-75
2021/07/28 04:33:12;;;;;;;19.38;11.75;;;14.10;99.90;;;;;;4946110;28;20050;-75
2021/07/28 04:35:39;;;;;;;18.45;11.18;;;14.10;99.90;;;;;;4942674;28;20090;-75
2021/07/28 04:38:09;;;;;;;19.73;11.43;;;14.10;99.90;;;;;;4959114;28;20117;-75
2021/07/28 04:40:39;;;;;;;18.23;11.73;;;14.10;99.90;;;;;;4960964;28;20046;-75
2021/07/28 04:43:06;;;;;;;18.70;12.38;;;14.10;99.90;;;;;;4944405;28;20153;-74
2021/07/28 04:45:35;;;;;;;23.52;13.10;;;14.10;99.90;;;;;;4934693;28;20062;-75
2021/07/28 04:48:08;;;;;;;23.13;12.43;;;14.20;99.90;;;;;;4967682;28;20070;-75
2021/07/28 04:50:36;;;;;;;20.33;12.25;;;14.20;99.90;;;;;;4962926;28;20480;-75
2021/07/28 04:53:03;;;;;;;19.00;11.95;;;14.20;99.90;;;;;;4947390;28;20047;-74
2021/07/28 04:55:33;;;;;;;22.20;12.23;;;14.30;99.90;;;;;;4914930;28;20127;-75
2021/07/28 04:58:00;;;;;;;20.40;12.10;;;14.30;99.90;;;;;;4947592;28;20113;-75
2021/07/28 05:00:30;;;;;;;20.58;12.00;;;14.30;99.90;;;;;;4928522;28;20117;-74
2021/07/28 05:02:57;;;;;;;16.20;11.40;;;14.40;99.90;;;;;;4958603;28;20054;-76
2021/07/28 05:05:59;;;;;;;16.38;11.75;;;14.60;99.90;;;;;;4954968;28;20043;-75
2021/07/28 05:08:31;;;;;;;16.52;10.80;;;14.70;99.90;;;;;;4946468;28;20039;-75
2021/07/28 05:10:59;;;;;;;19.75;11.52;;;14.70;99.90;;;;;;4951093;28;20128;-75
2021/07/28 05:13:26;;;;;;;16.35;11.25;;;14.70;99.90;;;;;;4950853;28;20520;-75
2021/07/28 05:15:56;;;;;;;14.77;11.35;;;14.70;99.90;;;;;;4958107;28;20055;-75
2021/07/28 05:18:24;;;;;;;15.27;10.63;;;14.70;99.90;;;;;;4932113;28;20093;-75
2021/07/28 05:20:51;;;;;;;19.95;10.65;;;14.80;99.90;;;;;;4963630;28;20050;-75
2021/07/28 05:23:19;;;;;;;22.70;11.20;;;14.80;99.90;;;;;;4922745;29;20058;-75
2021/07/28 05:25:49;;;;;;;17.33;11.50;;;14.80;99.90;;;;;;4961134;28;20051;-75
2021/07/28 05:28:25;;;;;;;19.10;11.10;;;14.90;99.90;;;;;;4969272;28;20080;-75
2021/07/28 05:30:52;;;;;;;17.48;12.02;;;14.90;99.90;;;;;;4924593;28;20089;-75
2021/07/28 05:33:22;;;;;;;18.80;11.52;;;15.00;99.90;;;;;;4948584;28;20353;-75
2021/07/28 05:35:49;;;;;;;17.67;11.70;;;15.10;99.90;;;;;;4936350;28;20043;-75
2021/07/28 05:38:16;;;;;;;23.13;11.68;;;15.10;99.90;;;;;;4935196;28;20057;-76
2021/07/28 05:40:43;;;;;;;16.45;11.73;;;15.10;99.90;;;;;;4937683;28;20074;-76
2021/07/28 05:43:12;;;;;;;17.73;11.48;;;15.10;99.90;;;;;;4935089;28;20118;-75
2021/07/28 05:45:49;;;;;;;22.27;12.90;;;15.10;99.90;;;;;;4944846;28;20071;-75
2021/07/28 05:48:19;;;;;;;23.15;13.15;;;15.10;99.90;;;;;;4955563;28;20069;-74
2021/07/28 05:50:50;;;;;;;21.15;13.23;;;15.10;99.90;;;;;;4955398;28;20062;-75
2021/07/28 05:53:25;;;;;;;20.27;13.23;;;15.20;99.90;;;;;;4954654;28;20057;-75
2021/07/28 05:55:55;;;;;;;15.98;11.85;;;15.40;99.90;;;;;;4928152;29;20051;-75
2021/07/28 05:58:29;;;;;;;20.98;13.25;;;15.50;99.90;;;;;;4952205;28;20058;-76
2021/07/28 06:00:59;;;;;;;18.67;12.95;;;15.40;99.90;;;;;;4959052;28;20051;-75
2021/07/28 06:03:26;;;;;;;18.30;12.20;;;15.50;99.90;;;;;;4931898;29;20043;-75
2021/07/28 06:05:58;;;;;;;19.35;13.18;;;15.50;99.90;;;;;;4959015;28;20058;-76
2021/07/28 06:08:29;;;;;;;20.73;13.95;;;15.40;99.90;;;;;;4952714;28;20069;-76
2021/07/28 06:11:02;;;;;;;22.02;13.55;;;15.40;99.90;;;;;;4966404;28;20519;-75
2021/07/28 06:13:31;;;;;;;20.23;12.70;;;15.50;99.90;;;;;;4931065;28;20055;-75
2021/07/28 06:16:05;;;;;;;18.20;12.65;;;15.60;99.90;;;;;;4958289;28;20063;-75
2021/07/28 06:18:33;;;;;;;21.02;11.88;;;15.60;99.90;;;;;;4926720;28;20143;-75
2021/07/28 06:21:07;;;;;;;19.73;13.57;;;15.70;99.90;;;;;;4954014;28;20054;-75
2021/07/28 06:23:35;;;;;;;23.17;13.38;;;15.80;99.90;;;;;;4955657;28;20070;-76
2021/07/28 06:26:02;;;;;;;16.38;12.50;;;15.90;99.90;;;;;;4939320;28;20113;-76
2021/07/28 06:28:33;;;;;;;18.08;11.20;;;16.00;99.90;;;;;;4941879;28;20123;-75
2021/07/28 06:31:01;;;;;;;21.83;12.88;;;16.00;99.90;;;;;;4953295;28;20050;-74
2021/07/28 06:33:28;;;;;;;18.45;13.07;;;16.00;99.90;;;;;;4944940;28;20043;-75
2021/07/28 06:35:58;;;;;;;23.20;14.35;;;15.90;99.90;;;;;;4976525;28;20131;-74
2021/07/28 06:38:27;;;;;;;19.50;13.18;;;16.00;99.90;;;;;;4945454;28;20429;-75
2021/07/28 06:40:55;;;;;;;21.95;13.48;;;15.90;99.90;;;;;;4961052;28;20089;-75
2021/07/28 06:43:32;;;;;;;22.00;13.57;;;15.90;99.90;;;;;;4971685;28;20368;-75
2021/07/28 06:46:16;;;;;;;19.02;13.23;;;16.00;99.90;;;;;;4978526;28;20057;-75
2021/07/28 06:48:49;;;;;;;19.55;12.52;;;15.90;99.90;;;;;;4972698;28;20106;-75
2021/07/28 06:51:20;;;;;;;16.38;11.05;;;15.90;99.90;;;;;;4945000;29;20073;-75
2021/07/28 06:53:47;;;;;;;16.65;11.30;;;15.90;99.90;;;;;;4953674;29;20128;-75
2021/07/28 06:56:37;;;;;;;16.27;10.93;;;16.00;99.90;;;;;;4942388;28;20102;-76
2021/07/28 06:59:04;;;;;;;16.67;11.05;;;16.10;99.90;;;;;;4954198;28;20053;-75
2021/07/28 07:01:32;;;;;;;14.98;11.48;;;16.10;99.90;;;;;;4937922;28;20559;-75
2021/07/28 07:04:06;;;;;;;15.95;11.90;;;16.00;99.90;;;;;;4959377;28;20133;-76
2021/07/28 07:06:33;;;;;;;23.33;12.10;;;16.00;99.90;;;;;;4951607;28;20480;-76
2021/07/28 07:09:01;;;;;;;16.75;12.23;;;16.10;99.90;;;;;;4955405;28;20150;-76
2021/07/28 07:11:31;;;;;;;16.77;12.30;;;16.20;99.90;;;;;;4912129;28;20257;-76
2021/07/28 07:14:01;;;;;;;18.73;11.93;;;16.20;99.90;;;;;;4948573;28;20125;-75
2021/07/28 07:16:29;;;;;;;19.10;13.25;;;16.20;99.90;;;;;;4949135;28;20105;-76
2021/07/28 07:19:00;;;;;;;18.63;14.15;;;16.30;99.90;;;;;;4932708;28;20069;-75
2021/07/28 07:21:29;;;;;;;18.38;13.20;;;16.40;99.90;;;;;;4945475;28;20051;-75
2021/07/28 07:23:57;;;;;;;17.67;12.23;;;16.40;99.90;;;;;;4946214;28;20532;-76
2021/07/28 07:26:24;;;;;;;16.05;12.32;;;16.50;99.90;;;;;;4951935;28;20066;-76
2021/07/28 07:28:57;;;;;;;26.00;13.65;;;16.50;99.90;;;;;;4964001;28;20137;-76
2021/07/28 07:31:26;;;;;;;17.00;12.00;;;16.50;99.90;;;;;;4952072;28;20523;-75
2021/07/28 07:33:53;;;;;;;15.40;10.82;;;16.40;99.90;;;;;;4940317;28;20058;-75
2021/07/28 07:36:26;;;;;;;15.73;11.25;;;16.50;99.90;;;;;;4960107;28;20079;-76
2021/07/28 07:38:54;;;;;;;17.88;12.07;;;16.50;99.90;;;;;;4932256;28;20522;-76
2021/07/28 07:41:27;;;;;;;14.68;9.52;;;16.60;99.90;;;;;;4916574;28;20057;-75
2021/07/28 07:43:57;;;;;;;15.68;11.23;;;17.00;99.90;;;;;;4932711;28;20069;-76
2021/07/28 07:46:33;;;;;;;13.30;9.40;;;17.50;99.90;;;;;;4947969;28;20085;-74
2021/07/28 07:49:07;;;;;;;10.10;8.30;;;18.00;99.90;;;;;;4933132;28;20145;-75
2021/07/28 07:51:38;;;;;;;11.38;8.77;;;18.40;99.90;;;;;;4930362;28;20042;-76
2021/07/28 07:54:08;;;;;;;11.98;8.40;;;18.80;99.90;;;;;;4947038;28;20061;-76
2021/07/28 07:56:35;;;;;;;11.13;7.72;;;19.30;99.90;;;;;;4931728;28;20154;-76
2021/07/28 07:59:06;;;;;;;10.98;7.57;;;19.60;99.90;;;;;;4946981;28;20043;-76
2021/07/28 08:01:38;;;;;;;9.80;8.20;;;19.70;99.90;;;;;;4937900;28;20051;-74
2021/07/28 08:04:10;;;;;;;9.52;7.47;;;19.70;99.90;;;;;;4960885;28;20085;-76
2021/07/28 08:06:36;;;;;;;9.65;7.90;;;19.90;99.90;;;;;;4951998;28;20137;-76
2021/07/28 08:09:07;;;;;;;8.52;7.38;;;20.00;99.90;;;;;;4944346;29;20059;-75
2021/07/28 08:11:35;;;;;;;8.27;7.38;;;20.20;99.90;;;;;;4949408;28;20110;-75
2021/07/28 08:14:02;;;;;;;8.98;6.97;;;20.50;99.90;;;;;;4918850;29;20423;-76
2021/07/28 08:16:34;;;;;;;10.98;7.55;;;20.60;99.90;;;;;;4917553;29;20178;-76
2021/07/28 08:19:06;;;;;;;9.32;7.40;;;20.30;99.90;;;;;;4960225;28;20735;-76
2021/07/28 08:21:37;;;;;;;8.13;7.25;;;20.20;99.90;;;;;;4961229;28;20121;-75
2021/07/28 08:24:04;;;;;;;9.63;7.45;;;20.00;99.90;;;;;;4952772;28;20523;-76
2021/07/28 08:26:38;;;;;;;10.10;7.90;;;19.70;99.90;;;;;;4945636;28;20066;-76
2021/07/28 08:29:11;;;;;;;25.02;8.23;;;19.60;99.90;;;;;;4951397;28;20075;-76
2021/07/28 08:31:42;;;;;;;11.32;7.88;;;19.60;99.90;;;;;;4945632;28;20051;-76
2021/07/28 08:34:13;;;;;;;8.55;7.57;;;19.80;99.90;;;;;;4938739;29;20069;-76
2021/07/28 08:36:43;;;;;;;8.55;7.72;;;19.80;99.90;;;;;;4955957;28;20567;-76
2021/07/28 08:39:10;;;;;;;12.02;8.32;;;19.60;99.90;;;;;;4927992;29;20118;-76
2021/07/28 08:41:47;;;;;;;12.45;8.38;;;19.60;99.90;;;;;;4948282;28;20499;-75
2021/07/28 08:44:22;;;;;;;10.52;6.60;;;19.60;99.90;;;;;;4932460;28;20051;-76
2021/07/28 08:46:53;;;;;;;8.13;7.32;;;19.80;99.90;;;;;;4962933;28;20522;-77
2021/07/28 08:49:28;;;;;;;8.18;7.30;;;19.80;99.90;;;;;;4946945;28;20082;-76
2021/07/28 08:52:03;;;;;;;8.95;8.02;;;19.80;99.90;;;;;;4961071;28;20058;-76
2021/07/28 08:54:37;;;;;;;8.48;7.05;;;19.60;99.90;;;;;;4912081;29;20055;-76
2021/07/28 08:57:11;;;;;;;11.95;8.05;;;19.40;99.90;;;;;;4932984;28;20053;-75
2021/07/28 08:59:47;;;;;;;7.43;6.65;;;19.50;99.90;;;;;;4941014;28;20161;-77
2021/07/28 09:02:15;;;;;;;8.43;6.57;;;19.60;99.90;;;;;;4947913;28;20066;-76
2021/07/28 09:04:45;;;;;;;7.95;7.00;;;19.70;99.90;;;;;;4940202;28;20084;-76
2021/07/28 09:07:14;;;;;;;10.38;6.47;;;19.80;99.90;;;;;;4947969;28;20354;-77
2021/07/28 09:09:57;;;;;;;6.68;6.07;;;19.90;99.90;;;;;;4949297;28;20090;-77
2021/07/28 09:12:43;;;;;;;7.90;7.10;;;19.90;99.90;;;;;;4960912;28;20187;-76
2021/07/28 09:15:15;;;;;;;8.40;7.60;;;19.80;99.90;;;;;;4939969;28;20047;-76
2021/07/28 09:17:48;;;;;;;8.50;7.28;;;19.70;99.90;;;;;;4949134;28;20508;-77
2021/07/28 09:20:25;;;;;;;8.38;7.38;;;19.80;99.90;;;;;;4921231;28;20601;-77
2021/07/28 09:23:10;;;;;;;9.57;7.87;;;19.90;99.90;;;;;;4963088;28;20081;-77
2021/07/28 09:25:39;;;;;;;7.85;6.68;;;19.90;99.90;;;;;;4928667;28;20097;-76
2021/07/28 09:28:21;;;;;;;11.80;7.50;;;20.00;99.90;;;;;;4969943;28;20059;-77
2021/07/28 09:30:53;;;;;;;10.98;8.10;;;20.00;99.90;;;;;;4943962;28;20276;-77
2021/07/28 09:33:26;;;;;;;11.45;8.43;;;19.90;99.90;;;;;;4927126;28;20464;-74
2021/07/28 09:36:05;;;;;;;9.88;7.63;;;19.70;99.90;;;;;;4911628;28;20070;-78
2021/07/28 09:38:45;;;;;;;9.07;7.60;;;19.60;99.90;;;;;;4926459;29;20044;-76
2021/07/28 09:41:38;;;;;;;8.18;7.30;;;19.50;99.90;;;;;;4935773;28;20046;-76
2021/07/28 09:47:38;;;;;;;9.73;6.85;;;19.40;99.90;;;;;;4951000;28;20109;-76
2021/07/28 09:50:08;;;;;;;;;;;19.40;99.90;;;;;;4948457;28;20129;-76
2021/07/28 09:52:50;;;;;;;9.48;7.47;;;19.40;99.90;;;;;;4919339;29;20463;-76
2021/07/28 09:55:34;;;;;;;8.70;7.15;;;19.50;99.90;;;;;;4922224;28;20126;-75
2021/07/28 09:58:05;;;;;;;12.02;7.82;;;19.70;99.90;;;;;;4921016;28;20047;-75
2021/07/28 10:00:43;;;;;;;9.57;7.88;;;19.90;99.90;;;;;;4927093;28;20039;-76
2021/07/28 10:03:43;;;;;;;11.80;8.98;;;19.90;99.90;;;;;;4931827;28;20081;-76
2021/07/28 10:06:19;;;;;;;12.45;7.97;;;20.10;99.90;;;;;;4939565;28;20683;-76
2021/07/28 10:09:09;;;;;;;11.23;7.68;;;20.30;99.90;;;;;;4952056;28;20085;-76
2021/07/28 10:12:01;;;;;;;10.35;7.85;;;20.40;99.90;;;;;;4929741;28;20054;-76
2021/07/28 10:14:42;;;;;;;11.30;8.40;;;20.30;99.90;;;;;;4944867;28;20304;-77
2021/07/28 10:17:22;;;;;;;8.98;8.02;;;20.30;99.90;;;;;;4942460;28;20051;-76
2021/07/28 10:20:07;;;;;;;9.02;7.43;;;20.40;99.90;;;;;;4917212;28;20097;-76
2021/07/28 10:22:56;;;;;;;9.77;8.93;;;20.70;99.90;;;;;;4934469;28;20049;-76
2021/07/28 10:25:40;;;;;;;9.38;8.63;;;20.80;99.90;;;;;;4920323;28;20046;-75
2021/07/28 10:28:22;;;;;;;8.57;7.70;;;21.10;99.90;;;;;;4919316;28;20128;-76
2021/07/28 10:31:32;;;;;;;10.07;9.27;;;21.60;99.90;;;;;;4920069;28;20083;-76
2021/07/28 10:34:35;;;;;;;9.63;8.90;;;21.80;99.90;;;;;;4947833;28;20047;-76
2021/07/28 10:37:28;;;;;;;10.15;9.25;;;22.00;99.90;;;;;;4936216;28;20090;-76
2021/07/28 10:40:08;;;;;;;10.07;9.38;;;22.00;99.90;;;;;;4918441;28;20043;-76
2021/07/28 10:43:01;;;;;;;;;;;;;;;;;;;;;
2021/07/28 10:45:59;;;;;;;9.90;9.27;;;21.40;99.90;;;;;;4947532;28;20191;-76
2021/07/28 10:48:47;;;;;;;10.45;9.40;;;21.40;99.90;;;;;;4933452;28;20542;-75
2021/07/28 10:51:50;;;;;;;10.38;9.80;;;22.00;99.90;;;;;;4934019;29;20540;-76
2021/07/28 10:54:40;;;;;;;11.70;10.63;;;22.40;99.90;;;;;;4945669;29;20508;-75
2021/07/28 10:57:08;;;;;;;9.77;9.18;;;22.80;99.90;;;;;;4914854;28;20105;-76
2021/07/28 10:59:39;;;;;;;10.73;9.93;;;23.10;99.90;;;;;;4943283;28;20043;-75
2021/07/28 11:02:06;;;;;;;10.05;9.45;;;23.00;99.90;;;;;;4953353;23;20031;-74
2021/07/28 11:04:34;;;;;;;10.25;9.63;;;22.40;99.90;;;;;;4967340;28;20578;-73
2021/07/28 11:07:10;;;;;;;10.98;10.18;;;22.00;99.90;;;;;;4975318;28;20044;-73
2021/07/28 11:09:38;;;;;;;9.65;8.85;;;22.10;99.90;;;;;;4934335;28;20058;-73
2021/07/28 11:12:12;;;;;;;9.98;9.30;;;22.10;99.90;;;;;;4961995;28;20063;-73
2021/07/28 11:14:46;;;;;;;10.57;9.52;;;21.90;99.90;;;;;;4968864;28;20054;-73
2021/07/28 11:17:27;;;;;;;10.90;8.80;;;21.70;99.90;;;;;;4963195;28;20047;-73
2021/07/28 11:19:58;;;;;;;9.65;8.75;;;21.70;99.90;;;;;;4965184;28;20125;-72
2021/07/28 11:22:26;;;;;;;10.32;9.48;;;21.40;99.90;;;;;;4955934;28;20062;-73
2021/07/28 11:24:57;;;;;;;9.13;8.43;;;21.50;99.90;;;;;;4967040;28;20059;-73
2021/07/28 11:27:25;;;;;;;10.45;9.63;;;21.80;99.90;;;;;;4948673;28;20130;-73
2021/07/28 11:30:14;;;;;;;9.77;9.18;;;22.10;99.90;;;;;;4967672;28;20362;-73
2021/07/28 11:32:43;;;;;;;10.00;9.30;;;22.20;99.90;;;;;;4967192;28;20460;-73
2021/07/28 11:35:12;;;;;;;9.43;8.75;;;21.70;99.90;;;;;;4972175;28;20539;-73
2021/07/28 11:37:40;;;;;;;8.13;7.45;;;21.10;99.90;;;;;;4973859;28;20053;-73
2021/07/28 11:40:13;;;;;;;7.15;6.65;;;20.80;99.90;;;;;;4965975;28;20054;-73
2021/07/28 11:42:41;;;;;;;8.90;8.23;;;20.30;99.90;;;;;;4967137;28;20050;-73
2021/07/28 11:45:37;;;;;;;8.70;8.20;;;20.00;99.90;;;;;;4965017;28;20039;-73
2021/07/28 11:48:44;;;;;;;8.05;7.63;;;20.40;99.90;;;;;;4965630;28;20051;-73
2021/07/28 11:51:31;;;;;;;8.18;7.57;;;20.50;99.90;;;;;;4903867;29;20140;-73
2021/07/28 11:54:17;;;;;;;8.80;8.10;;;20.20;99.90;;;;;;4905252;29;20053;-72
2021/07/28 11:56:46;;;;;;;10.40;9.50;;;20.10;99.90;;;;;;4889221;29;20498;-73
2021/07/28 11:59:13;;;;;;;9.48;8.88;;;20.10;99.90;;;;;;4879204;29;20040;-74
2021/07/28 12:02:18;;;;;;;9.10;8.55;;;20.70;99.90;;;;;;4887778;28;20063;-73
2021/07/28 12:04:50;;;;;;;9.40;8.70;;;21.00;99.90;;;;;;4974208;28;20351;-73
2021/07/28 12:07:24;;;;;;;8.57;7.97;;;21.40;99.90;;;;;;4976713;28;20086;-73
2021/07/28 12:10:01;;;;;;;8.93;8.20;;;21.30;99.90;;;;;;4965692;28;20416;-73
2021/07/28 12:12:34;;;;;;;9.73;9.02;;;21.10;99.90;;;;;;4976282;28;20062;-71
2021/07/28 12:15:10;;;;;;;10.50;9.63;;;21.40;99.90;;;;;;4951019;28;20058;-74
2021/07/28 12:17:54;;;;;;;11.10;10.13;;;21.80;99.90;;;;;;4946694;28;20530;-73
2021/07/28 12:20:21;;;;;;;10.32;9.63;;;21.60;99.90;;;;;;4978315;28;20499;-74
2021/07/28 12:23:08;;;;;;;10.30;9.52;;;21.10;99.90;;;;;;4969920;28;20062;-73
2021/07/28 12:25:47;;;;;;;9.10;8.35;;;20.80;99.90;;;;;;4946104;28;20057;-73
2021/07/28 12:28:16;;;;;;;9.07;8.20;;;20.40;99.90;;;;;;4973281;28;20050;-73
2021/07/28 12:30:42;;;;;;;7.82;7.15;;;19.70;99.90;;;;;;4965761;28;20059;-73
2021/07/28 12:33:23;;;;;;;6.72;5.90;;;18.90;99.90;;;;;;4966298;28;20069;-71
2021/07/28 12:35:55;;;;;;;5.93;4.63;;;18.40;99.90;;;;;;4973665;28;20049;-73
2021/07/28 12:38:36;;;;;;;7.90;5.07;;;18.00;99.90;;;;;;4958289;28;20035;-74
2021/07/28 12:41:06;;;;;;;5.97;5.38;;;17.80;99.90;;;;;;4984600;28;20157;-74
2021/07/28 12:43:35;;;;;;;7.75;4.97;;;17.60;99.90;;;;;;4955440;28;20046;-76
2021/07/28 12:46:04;;;;;;;8.82;7.00;;;17.40;99.90;;;;;;4971407;28;20054;-75
2021/07/28 12:48:37;;;;;;;6.50;5.80;;;17.40;99.90;;;;;;4961031;28;20047;-74
2021/07/28 12:51:07;;;;;;;6.75;5.25;;;17.50;99.90;;;;;;4953258;28;20057;-73
2021/07/28 12:53:37;;;;;;;7.82;5.50;;;17.70;99.90;;;;;;4964872;28;20058;-74
2021/07/28 12:56:06;;;;;;;8.30;5.05;;;17.80;99.90;;;;;;4949224;28;20076;-72
2021/07/28 12:58:37;;;;;;;10.10;4.57;;;17.90;99.90;;;;;;4977681;28;20471;-74
2021/07/28 13:01:06;;;;;;;4.93;4.50;;;17.90;99.90;;;;;;4945450;28;20094;-74
2021/07/28 13:03:42;;;;;;;5.38;4.40;;;18.20;99.90;;;;;;4964472;28;20133;-74
2021/07/28 13:06:23;;;;;;;7.45;4.22;;;18.20;99.90;;;;;;4970887;28;20054;-74
2021/07/28 13:08:58;;;;;;;9.00;4.35;;;18.40;99.90;;;;;;4966824;28;20061;-74